sensor_id;sensor_type;location;lat;lon;timestamp;pressure;altitude;pressure_sealevel;temperature;humidity
24390;BME280;12510;56.468;-3.004;2023-05-09T00:00:23;99970.34;;;17.99;100.00
24390;BME280;12510;56.468;-3.004;2023-05-09T00:02:50;99975.47;;;18.07;100.00
24390;BME280;12510;56.468;-3.004;2023-05-09T00:05:16;99971.13;;;17.93;100.00
24390;BME280;12510;56.468;-3.004;2023-05-09T00:07:42;99967.91;;;18.04;100.00
24390;BME280;12510;56.468;-3.004;2023-05-09T00:10:09;99966.69;;;18.27;100.00
24390;BME280;12510;56.468;-3.004;2023-05-09T00:12:35;99961.97;;;18.22;100.00
24390;BME280;12510;56.468;-3.004;2023-05-09T00:15:02;99963.63;;;18.23;100.00
24390;BME280;12510;56.468;-3.004;2023-05-09T00:17:30;99965.81;;;17.93;100.00
24390;BME280;12510;56.468;-3.004;2023-05-09T00:19:56;99959.84;;;17.91;100.00
24390;BME280;12510;56.468;-3.004;2023-05-09T00:22:23;99952.13;;;18.23;100.00
24390;BME280;12510;56.468;-3.004;2023-05-09T00:24:49;99956.84;;;18.07;100.00
24390;BME280;12510;56.468;-3.004;2023-05-09T00:27:16;99945.97;;;18.09;100.00
24390;BME280;12510;56.468;-3.004;2023-05-09T00:29:42;99931.72;;;17.68;100.00
24390;BME280;12510;56.468;-3.004;2023-05-09T00:32:09;99929.09;;;17.88;100.00
24390;BME280;12510;56.468;-3.004;2023-05-09T00:34:35;99923.34;;;17.78;100.00
24390;BME280;12510;56.468;-3.004;2023-05-09T00:37:02;99919.00;;;17.70;100.00
24390;BME280;12510;56.468;-3.004;2023-05-09T00:39:29;99923.88;;;17.60;100.00
24390;BME280;12510;56.468;-3.004;2023-05-09T00:41:55;99919.41;;;17.61;100.00
24390;BME280;12510;56.468;-3.004;2023-05-09T00:44:22;99916.06;;;17.52;100.00
24390;BME280;12510;56.468;-3.004;2023-05-09T00:46:49;99908.31;;;17.57;100.00
24390;BME280;12510;56.468;-3.004;2023-05-09T00:49:15;99908.81;;;17.81;100.00
24390;BME280;12510;56.468;-3.004;2023-05-09T00:51:42;99903.69;;;17.86;100.00
24390;BME280;12510;56.468;-3.004;2023-05-09T00:54:08;99906.72;;;17.69;100.00
24390;BME280;12510;56.468;-3.004;2023-05-09T00:56:35;99904.28;;;17.74;100.00
24390;BME280;12510;56.468;-3.004;2023-05-09T00:59:02;99905.13;;;17.82;100.00
24390;BME280;12510;56.468;-3.004;2023-05-09T01:01:28;99907.16;;;17.80;100.00
24390;BME280;12510;56.468;-3.004;2023-05-09T01:03:55;99899.75;;;17.62;100.00
24390;BME280;12510;56.468;-3.004;2023-05-09T01:06:35;99903.25;;;17.75;100.00
24390;BME280;12510;56.468;-3.004;2023-05-09T01:09:20;99903.22;;;17.62;100.00
24390;BME280;12510;56.468;-3.004;2023-05-09T01:15:02;99905.63;;;17.50;100.00
24390;BME280;12510;56.468;-3.004;2023-05-09T01:20:13;99920.63;;;17.09;100.00
24390;BME280;12510;56.468;-3.004;2023-05-09T01:22:47;99917.09;;;17.02;100.00
24390;BME280;12510;56.468;-3.004;2023-05-09T01:28:18;99898.53;;;17.16;100.00
24390;BME280;12510;56.468;-3.004;2023-05-09T01:30:50;99905.75;;;17.29;100.00
24390;BME280;12510;56.468;-3.004;2023-05-09T01:33:19;99913.47;;;17.17;100.00
24390;BME280;12510;56.468;-3.004;2023-05-09T01:35:50;99910.16;;;17.01;100.00
24390;BME280;12510;56.468;-3.004;2023-05-09T01:38:21;99900.06;;;16.97;100.00
24390;BME280;12510;56.468;-3.004;2023-05-09T01:40:53;99907.13;;;16.83;100.00
24390;BME280;12510;56.468;-3.004;2023-05-09T01:43:21;99906.84;;;16.99;100.00
24390;BME280;12510;56.468;-3.004;2023-05-09T01:45:50;99914.59;;;16.94;100.00
24390;BME280;12510;56.468;-3.004;2023-05-09T01:48:17;99908.25;;;16.95;100.00
24390;BME280;12510;56.468;-3.004;2023-05-09T01:50:45;99910.88;;;16.60;100.00
24390;BME280;12510;56.468;-3.004;2023-05-09T01:53:13;99914.13;;;16.62;100.00
24390;BME280;12510;56.468;-3.004;2023-05-09T01:55:42;99919.00;;;16.52;100.00
24390;BME280;12510;56.468;-3.004;2023-05-09T01:58:12;99913.03;;;16.50;100.00
24390;BME280;12510;56.468;-3.004;2023-05-09T02:00:39;99908.59;;;16.57;100.00
24390;BME280;12510;56.468;-3.004;2023-05-09T02:03:07;99913.22;;;16.48;100.00
24390;BME280;12510;56.468;-3.004;2023-05-09T02:05:35;99918.75;;;16.75;100.00
24390;BME280;12510;56.468;-3.004;2023-05-09T02:08:02;99916.38;;;16.58;100.00
24390;BME280;12510;56.468;-3.004;2023-05-09T02:10:33;99912.88;;;16.58;100.00
24390;BME280;12510;56.468;-3.004;2023-05-09T02:13:00;99913.91;;;16.57;100.00
24390;BME280;12510;56.468;-3.004;2023-05-09T02:15:28;99916.44;;;16.65;100.00
24390;BME280;12510;56.468;-3.004;2023-05-09T02:17:54;99916.03;;;16.68;100.00
24390;BME280;12510;56.468;-3.004;2023-05-09T02:20:21;99917.94;;;16.53;100.00
24390;BME280;12510;56.468;-3.004;2023-05-09T02:22:48;99915.28;;;16.74;100.00
24390;BME280;12510;56.468;-3.004;2023-05-09T02:25:16;99914.81;;;16.71;100.00
24390;BME280;12510;56.468;-3.004;2023-05-09T02:27:45;99916.69;;;16.70;100.00
24390;BME280;12510;56.468;-3.004;2023-05-09T02:30:16;99919.78;;;16.81;100.00
24390;BME280;12510;56.468;-3.004;2023-05-09T02:32:47;99915.63;;;16.71;100.00
24390;BME280;12510;56.468;-3.004;2023-05-09T02:35:16;99917.53;;;16.78;100.00
24390;BME280;12510;56.468;-3.004;2023-05-09T02:37:44;99917.78;;;16.83;100.00
24390;BME280;12510;56.468;-3.004;2023-05-09T02:40:12;99911.34;;;16.99;100.00
24390;BME280;12510;56.468;-3.004;2023-05-09T02:42:39;99920.03;;;16.86;100.00
24390;BME280;12510;56.468;-3.004;2023-05-09T02:45:06;99912.59;;;17.03;100.00
24390;BME280;12510;56.468;-3.004;2023-05-09T02:47:33;99917.25;;;16.94;100.00
24390;BME280;12510;56.468;-3.004;2023-05-09T02:49:59;99920.22;;;16.84;100.00
24390;BME280;12510;56.468;-3.004;2023-05-09T02:52:26;99913.38;;;16.97;100.00
24390;BME280;12510;56.468;-3.004;2023-05-09T02:54:52;99922.06;;;16.55;100.00
24390;BME280;12510;56.468;-3.004;2023-05-09T02:57:19;99919.78;;;16.81;100.00
24390;BME280;12510;56.468;-3.004;2023-05-09T02:59:46;99916.97;;;16.89;100.00
24390;BME280;12510;56.468;-3.004;2023-05-09T03:02:12;99919.97;;;17.07;100.00
24390;BME280;12510;56.468;-3.004;2023-05-09T03:04:39;99915.94;;;17.18;100.00
24390;BME280;12510;56.468;-3.004;2023-05-09T03:07:07;99928.00;;;16.86;100.00
24390;BME280;12510;56.468;-3.004;2023-05-09T03:09:33;99928.13;;;16.99;100.00
24390;BME280;12510;56.468;-3.004;2023-05-09T03:12:00;99923.28;;;17.09;100.00
24390;BME280;12510;56.468;-3.004;2023-05-09T03:14:27;99930.59;;;17.01;100.00
24390;BME280;12510;56.468;-3.004;2023-05-09T03:16:54;99930.59;;;17.01;100.00
24390;BME280;12510;56.468;-3.004;2023-05-09T03:19:26;99937.31;;;16.68;100.00
24390;BME280;12510;56.468;-3.004;2023-05-09T03:21:52;99938.06;;;16.62;100.00
24390;BME280;12510;56.468;-3.004;2023-05-09T03:24:19;99934.44;;;16.70;100.00
24390;BME280;12510;56.468;-3.004;2023-05-09T03:26:45;99935.69;;;16.74;100.00
24390;BME280;12510;56.468;-3.004;2023-05-09T03:29:12;99931.94;;;16.62;100.00
24390;BME280;12510;56.468;-3.004;2023-05-09T03:31:38;99933.53;;;16.56;100.00
24390;BME280;12510;56.468;-3.004;2023-05-09T03:34:05;99932.38;;;16.65;100.00
24390;BME280;12510;56.468;-3.004;2023-05-09T03:36:31;99940.97;;;16.67;100.00
24390;BME280;12510;56.468;-3.004;2023-05-09T03:38:59;99927.97;;;16.79;100.00
24390;BME280;12510;56.468;-3.004;2023-05-09T03:41:25;99940.06;;;16.53;100.00
24390;BME280;12510;56.468;-3.004;2023-05-09T03:43:52;99934.41;;;16.63;100.00
24390;BME280;12510;56.468;-3.004;2023-05-09T03:46:18;99935.13;;;16.50;100.00
24390;BME280;12510;56.468;-3.004;2023-05-09T03:48:47;99937.56;;;16.23;100.00
24390;BME280;12510;56.468;-3.004;2023-05-09T03:51:13;99941.47;;;16.49;100.00
24390;BME280;12510;56.468;-3.004;2023-05-09T03:53:45;99942.81;;;16.38;100.00
24390;BME280;12510;56.468;-3.004;2023-05-09T03:56:13;99936.34;;;16.48;100.00
24390;BME280;12510;56.468;-3.004;2023-05-09T03:58:45;99939.66;;;16.56;100.00
24390;BME280;12510;56.468;-3.004;2023-05-09T04:01:13;99943.97;;;16.57;100.00
24390;BME280;12510;56.468;-3.004;2023-05-09T04:03:40;99939.66;;;16.56;100.00
24390;BME280;12510;56.468;-3.004;2023-05-09T04:06:08;99935.75;;;16.52;100.00
24390;BME280;12510;56.468;-3.004;2023-05-09T04:08:38;99930.81;;;16.78;100.00
24390;BME280;12510;56.468;-3.004;2023-05-09T04:11:05;99933.78;;;16.61;100.00
24390;BME280;12510;56.468;-3.004;2023-05-09T04:13:32;99939.09;;;16.61;100.00
24390;BME280;12510;56.468;-3.004;2023-05-09T04:16:02;99931.97;;;16.68;100.00
24390;BME280;12510;56.468;-3.004;2023-05-09T04:18:31;99928.28;;;16.91;100.00
24390;BME280;12510;56.468;-3.004;2023-05-09T04:20:58;99923.56;;;16.93;100.00
24390;BME280;12510;56.468;-3.004;2023-05-09T04:23:24;99922.56;;;16.94;100.00
24390;BME280;12510;56.468;-3.004;2023-05-09T04:25:52;99915.78;;;16.91;100.00
24390;BME280;12510;56.468;-3.004;2023-05-09T04:28:19;99920.78;;;17.01;100.00
24390;BME280;12510;56.468;-3.004;2023-05-09T04:30:47;99921.47;;;16.88;100.00
24390;BME280;12510;56.468;-3.004;2023-05-09T04:33:13;99926.16;;;16.58;100.00
24390;BME280;12510;56.468;-3.004;2023-05-09T04:35:41;99921.41;;;16.75;100.00
24390;BME280;12510;56.468;-3.004;2023-05-09T04:38:08;99916.38;;;16.58;100.00
24390;BME280;12510;56.468;-3.004;2023-05-09T04:40:35;99907.75;;;16.56;100.00
24390;BME280;12510;56.468;-3.004;2023-05-09T04:43:01;99912.94;;;16.36;100.00
24390;BME280;12510;56.468;-3.004;2023-05-09T04:45:30;99915.78;;;16.63;100.00
24390;BME280;12510;56.468;-3.004;2023-05-09T04:47:58;99908.97;;;16.54;100.00
24390;BME280;12510;56.468;-3.004;2023-05-09T04:50:24;99912.44;;;15.83;100.00
24390;BME280;12510;56.468;-3.004;2023-05-09T04:52:51;99914.59;;;16.16;100.00
24390;BME280;12510;56.468;-3.004;2023-05-09T04:55:18;99911.19;;;16.00;100.00
24390;BME280;12510;56.468;-3.004;2023-05-09T04:57:47;99911.94;;;15.94;100.00
24390;BME280;12510;56.468;-3.004;2023-05-09T05:00:14;99903.53;;;16.12;100.00
24390;BME280;12510;56.468;-3.004;2023-05-09T05:02:43;99903.03;;;16.23;100.00
24390;BME280;12510;56.468;-3.004;2023-05-09T05:05:09;99905.53;;;16.32;100.00
24390;BME280;12510;56.468;-3.004;2023-05-09T05:07:37;99905.59;;;15.95;100.00
24390;BME280;12510;56.468;-3.004;2023-05-09T05:10:04;99904.22;;;15.99;100.00
24390;BME280;12510;56.468;-3.004;2023-05-09T05:12:32;99893.66;;;15.84;100.00
24390;BME280;12510;56.468;-3.004;2023-05-09T05:14:58;99891.66;;;15.86;100.00
24390;BME280;12510;56.468;-3.004;2023-05-09T05:17:25;99895.38;;;16.14;100.00
24390;BME280;12510;56.468;-3.004;2023-05-09T05:19:55;99899.78;;;16.28;100.00
24390;BME280;12510;56.468;-3.004;2023-05-09T05:22:21;99908.25;;;15.95;100.00
24390;BME280;12510;56.468;-3.004;2023-05-09T05:24:48;99909.84;;;16.11;100.00
24390;BME280;12510;56.468;-3.004;2023-05-09T05:27:14;99907.00;;;16.34;100.00
24390;BME280;12510;56.468;-3.004;2023-05-09T05:29:41;99910.56;;;16.48;100.00
24390;BME280;12510;56.468;-3.004;2023-05-09T05:32:07;99912.16;;;16.42;100.00
24390;BME280;12510;56.468;-3.004;2023-05-09T05:34:34;99912.63;;;16.53;100.00
24390;BME280;12510;56.468;-3.004;2023-05-09T05:37:01;99918.53;;;16.20;100.00
24390;BME280;12510;56.468;-3.004;2023-05-09T05:39:30;99914.38;;;16.39;100.00
24390;BME280;12510;56.468;-3.004;2023-05-09T05:41:56;99910.44;;;16.56;100.00
24390;BME280;12510;56.468;-3.004;2023-05-09T05:44:23;99907.03;;;16.98;100.00
24390;BME280;12510;56.468;-3.004;2023-05-09T05:46:49;99909.00;;;16.89;100.00
24390;BME280;12510;56.468;-3.004;2023-05-09T05:49:16;99916.19;;;17.23;100.00
24390;BME280;12510;56.468;-3.004;2023-05-09T05:51:43;99907.78;;;17.26;100.00
24390;BME280;12510;56.468;-3.004;2023-05-09T05:54:10;99913.13;;;17.33;100.00
24390;BME280;12510;56.468;-3.004;2023-05-09T05:56:36;99906.84;;;17.41;100.00
24390;BME280;12510;56.468;-3.004;2023-05-09T05:59:03;99916.44;;;17.35;100.00
24390;BME280;12510;56.468;-3.004;2023-05-09T06:01:29;99916.00;;;16.90;100.00
24390;BME280;12510;56.468;-3.004;2023-05-09T06:03:57;99912.94;;;17.28;100.00
24390;BME280;12510;56.468;-3.004;2023-05-09T06:06:26;99907.97;;;17.18;100.00
24390;BME280;12510;56.468;-3.004;2023-05-09T06:08:54;99910.41;;;17.20;100.00
24390;BME280;12510;56.468;-3.004;2023-05-09T06:11:20;99915.53;;;17.15;100.00
24390;BME280;12510;56.468;-3.004;2023-05-09T06:13:47;99911.25;;;17.20;100.00
24390;BME280;12510;56.468;-3.004;2023-05-09T06:16:13;99914.94;;;17.19;100.00
24390;BME280;12510;56.468;-3.004;2023-05-09T06:18:40;99907.75;;;17.20;100.00
24390;BME280;12510;56.468;-3.004;2023-05-09T06:21:06;99907.50;;;17.56;100.00
24390;BME280;12510;56.468;-3.004;2023-05-09T06:23:33;99906.91;;;17.61;100.00
24390;BME280;12510;56.468;-3.004;2023-05-09T06:26:02;99918.53;;;17.53;100.00
24390;BME280;12510;56.468;-3.004;2023-05-09T06:28:29;99907.84;;;17.40;100.00
24390;BME280;12510;56.468;-3.004;2023-05-09T06:30:55;99914.28;;;17.59;100.00
24390;BME280;12510;56.468;-3.004;2023-05-09T06:33:22;99913.97;;;17.34;100.00
24390;BME280;12510;56.468;-3.004;2023-05-09T06:35:48;99921.25;;;17.73;100.00
24390;BME280;12510;56.468;-3.004;2023-05-09T06:38:14;99917.59;;;17.74;100.00
24390;BME280;12510;56.468;-3.004;2023-05-09T06:40:41;99913.72;;;17.90;100.00
24390;BME280;12510;56.468;-3.004;2023-05-09T06:43:07;99910.72;;;18.27;100.00
24390;BME280;12510;56.468;-3.004;2023-05-09T06:45:34;99913.81;;;18.51;100.00
24390;BME280;12510;56.468;-3.004;2023-05-09T06:48:01;99907.47;;;19.37;100.00
24390;BME280;12510;56.468;-3.004;2023-05-09T06:50:27;99892.16;;;19.58;100.00
24390;BME280;12510;56.468;-3.004;2023-05-09T06:52:53;99877.75;;;20.73;100.00
24390;BME280;12510;56.468;-3.004;2023-05-09T06:55:20;99888.41;;;20.04;100.00
24390;BME280;12510;56.468;-3.004;2023-05-09T06:57:46;99883.81;;;21.36;100.00
24390;BME280;12510;56.468;-3.004;2023-05-09T07:00:13;99890.19;;;22.26;100.00
24390;BME280;12510;56.468;-3.004;2023-05-09T07:02:40;99895.00;;;22.60;100.00
24390;BME280;12510;56.468;-3.004;2023-05-09T07:05:08;99896.97;;;22.76;100.00
24390;BME280;12510;56.468;-3.004;2023-05-09T07:07:34;99890.22;;;23.26;100.00
24390;BME280;12510;56.468;-3.004;2023-05-09T07:10:01;99884.75;;;22.45;100.00
24390;BME280;12510;56.468;-3.004;2023-05-09T07:12:30;99871.88;;;22.83;100.00
24390;BME280;12510;56.468;-3.004;2023-05-09T07:14:57;99879.59;;;23.32;100.00
24390;BME280;12510;56.468;-3.004;2023-05-09T07:17:23;99868.44;;;24.15;100.00
24390;BME280;12510;56.468;-3.004;2023-05-09T07:19:50;99865.41;;;23.94;100.00
24390;BME280;12510;56.468;-3.004;2023-05-09T07:22:16;99869.22;;;24.88;100.00
24390;BME280;12510;56.468;-3.004;2023-05-09T07:24:43;99850.34;;;23.93;100.00
24390;BME280;12510;56.468;-3.004;2023-05-09T07:27:11;99849.88;;;24.52;100.00
24390;BME280;12510;56.468;-3.004;2023-05-09T07:29:37;99842.31;;;24.66;100.00
24390;BME280;12510;56.468;-3.004;2023-05-09T07:32:04;99839.78;;;25.81;100.00
24390;BME280;12510;56.468;-3.004;2023-05-09T07:34:31;99821.72;;;25.26;100.00
24390;BME280;12510;56.468;-3.004;2023-05-09T07:36:57;99832.50;;;24.60;100.00
24390;BME280;12510;56.468;-3.004;2023-05-09T07:39:24;99838.53;;;25.34;100.00
24390;BME280;12510;56.468;-3.004;2023-05-09T07:41:50;99832.72;;;25.20;100.00
24390;BME280;12510;56.468;-3.004;2023-05-09T07:44:16;99813.59;;;26.62;100.00
24390;BME280;12510;56.468;-3.004;2023-05-09T07:46:43;99822.13;;;25.68;100.00
24390;BME280;12510;56.468;-3.004;2023-05-09T07:49:09;99828.72;;;25.00;100.00
24390;BME280;12510;56.468;-3.004;2023-05-09T07:51:35;99816.03;;;25.77;100.00
24390;BME280;12510;56.468;-3.004;2023-05-09T07:54:02;99820.50;;;24.68;100.00
24390;BME280;12510;56.468;-3.004;2023-05-09T07:56:28;99815.41;;;25.16;100.00
24390;BME280;12510;56.468;-3.004;2023-05-09T07:58:55;99803.16;;;26.27;100.00
24390;BME280;12510;56.468;-3.004;2023-05-09T08:01:21;99813.13;;;25.30;100.00
24390;BME280;12510;56.468;-3.004;2023-05-09T08:03:48;99790.38;;;26.55;93.25
24390;BME280;12510;56.468;-3.004;2023-05-09T08:06:14;99797.25;;;25.93;95.22
24390;BME280;12510;56.468;-3.004;2023-05-09T08:08:41;99787.06;;;26.48;90.76
24390;BME280;12510;56.468;-3.004;2023-05-09T08:11:07;99770.38;;;27.40;84.94
24390;BME280;12510;56.468;-3.004;2023-05-09T08:13:33;99772.94;;;28.43;83.31
24390;BME280;12510;56.468;-3.004;2023-05-09T08:16:00;99764.28;;;26.82;80.90
24390;BME280;12510;56.468;-3.004;2023-05-09T08:18:27;99775.56;;;26.63;86.31
24390;BME280;12510;56.468;-3.004;2023-05-09T08:20:53;99775.47;;;26.48;86.48
24390;BME280;12510;56.468;-3.004;2023-05-09T08:23:20;99780.91;;;26.53;90.43
24390;BME280;12510;56.468;-3.004;2023-05-09T08:25:46;99780.72;;;26.70;87.06
24390;BME280;12510;56.468;-3.004;2023-05-09T08:28:12;99778.75;;;27.65;88.21
24390;BME280;12510;56.468;-3.004;2023-05-09T08:30:39;99760.06;;;27.89;78.56
24390;BME280;12510;56.468;-3.004;2023-05-09T08:33:05;99748.25;;;28.55;72.21
24390;BME280;12510;56.468;-3.004;2023-05-09T08:35:32;99752.78;;;27.33;70.98
24390;BME280;12510;56.468;-3.004;2023-05-09T08:37:58;99775.38;;;26.27;76.86
24390;BME280;12510;56.468;-3.004;2023-05-09T08:40:24;99771.63;;;27.07;75.12
24390;BME280;12510;56.468;-3.004;2023-05-09T08:42:51;99765.41;;;27.01;71.37
24390;BME280;12510;56.468;-3.004;2023-05-09T08:45:24;99776.91;;;25.42;76.41
24390;BME280;12510;56.468;-3.004;2023-05-09T08:47:52;99790.81;;;25.99;79.35
24390;BME280;12510;56.468;-3.004;2023-05-09T08:50:19;99779.97;;;25.56;77.26
24390;BME280;12510;56.468;-3.004;2023-05-09T08:52:47;99784.09;;;25.64;80.87
24390;BME280;12510;56.468;-3.004;2023-05-09T08:55:13;99789.00;;;26.53;83.39
24390;BME280;12510;56.468;-3.004;2023-05-09T08:57:40;99782.56;;;26.59;77.11
24390;BME280;12510;56.468;-3.004;2023-05-09T09:00:07;99794.44;;;25.45;83.44
24390;BME280;12510;56.468;-3.004;2023-05-09T09:02:39;99784.63;;;25.34;81.93
24390;BME280;12510;56.468;-3.004;2023-05-09T09:05:06;99788.09;;;26.95;80.73
24390;BME280;12510;56.468;-3.004;2023-05-09T09:07:35;99768.47;;;27.56;74.74
24390;BME280;12510;56.468;-3.004;2023-05-09T09:10:03;99765.53;;;26.58;71.13
24390;BME280;12510;56.468;-3.004;2023-05-09T09:12:30;99774.56;;;26.85;75.33
24390;BME280;12510;56.468;-3.004;2023-05-09T09:15:03;99750.91;;;27.74;70.46
24390;BME280;12510;56.468;-3.004;2023-05-09T09:17:30;99764.41;;;27.49;69.38
24390;BME280;12510;56.468;-3.004;2023-05-09T09:19:59;99768.47;;;26.52;71.01
24390;BME280;12510;56.468;-3.004;2023-05-09T09:22:31;99791.50;;;26.17;78.19
24390;BME280;12510;56.468;-3.004;2023-05-09T09:24:59;99771.53;;;26.13;72.06
24390;BME280;12510;56.468;-3.004;2023-05-09T09:27:27;99773.66;;;25.18;74.49
24390;BME280;12510;56.468;-3.004;2023-05-09T09:29:54;99785.38;;;23.84;80.38
24390;BME280;12510;56.468;-3.004;2023-05-09T09:32:31;99777.88;;;26.01;76.98
24390;BME280;12510;56.468;-3.004;2023-05-09T09:35:08;99779.84;;;26.06;77.68
24390;BME280;12510;56.468;-3.004;2023-05-09T09:37:38;99790.03;;;24.62;82.07
24390;BME280;12510;56.468;-3.004;2023-05-09T09:40:09;99763.78;;;25.89;69.05
24390;BME280;12510;56.468;-3.004;2023-05-09T09:42:45;99763.19;;;26.72;69.16
24390;BME280;12510;56.468;-3.004;2023-05-09T09:45:14;99775.84;;;25.76;73.28
24390;BME280;12510;56.468;-3.004;2023-05-09T09:47:42;99763.31;;;27.29;68.72
24390;BME280;12510;56.468;-3.004;2023-05-09T09:50:13;99773.53;;;25.03;71.15
24390;BME280;12510;56.468;-3.004;2023-05-09T09:52:51;99758.31;;;24.25;66.53
24390;BME280;12510;56.468;-3.004;2023-05-09T09:55:19;99750.50;;;25.45;63.09
24390;BME280;12510;56.468;-3.004;2023-05-09T09:57:46;99753.25;;;25.50;62.63
24390;BME280;12510;56.468;-3.004;2023-05-09T10:00:15;99744.81;;;25.41;61.32
24390;BME280;12510;56.468;-3.004;2023-05-09T10:05:36;99776.00;;;23.87;72.15
24390;BME280;12510;56.468;-3.004;2023-05-09T10:08:04;99779.13;;;24.35;75.93
24390;BME280;12510;56.468;-3.004;2023-05-09T10:10:33;99778.50;;;24.89;77.32
24390;BME280;12510;56.468;-3.004;2023-05-09T10:13:08;99777.34;;;25.34;77.07
24390;BME280;12510;56.468;-3.004;2023-05-09T10:15:36;99765.75;;;25.66;74.78
24390;BME280;12510;56.468;-3.004;2023-05-09T10:18:03;99763.25;;;26.98;71.38
24390;BME280;12510;56.468;-3.004;2023-05-09T10:20:30;99765.03;;;25.43;73.68
24390;BME280;12510;56.468;-3.004;2023-05-09T10:23:00;99758.63;;;26.78;71.18
24390;BME280;12510;56.468;-3.004;2023-05-09T10:25:35;99756.13;;;25.75;69.54
24390;BME280;12510;56.468;-3.004;2023-05-09T10:28:14;99761.25;;;25.77;72.83
24390;BME280;12510;56.468;-3.004;2023-05-09T10:31:07;99753.19;;;26.20;68.45
24390;BME280;12510;56.468;-3.004;2023-05-09T10:33:49;99734.94;;;27.52;65.75
24390;BME280;12510;56.468;-3.004;2023-05-09T10:36:20;99727.34;;;27.34;61.20
24390;BME280;12510;56.468;-3.004;2023-05-09T10:38:48;99739.00;;;27.45;64.92
24390;BME280;12510;56.468;-3.004;2023-05-09T10:41:16;99747.94;;;26.51;64.34
24390;BME280;12510;56.468;-3.004;2023-05-09T10:43:44;99743.03;;;27.21;64.60
24390;BME280;12510;56.468;-3.004;2023-05-09T10:46:11;99741.47;;;26.52;62.55
24390;BME280;12510;56.468;-3.004;2023-05-09T10:48:39;99752.47;;;27.19;68.79
24390;BME280;12510;56.468;-3.004;2023-05-09T10:51:07;99734.13;;;27.67;64.11
24390;BME280;12510;56.468;-3.004;2023-05-09T10:53:48;99758.09;;;26.23;68.35
24390;BME280;12510;56.468;-3.004;2023-05-09T10:56:24;99746.28;;;27.18;65.35
24390;BME280;12510;56.468;-3.004;2023-05-09T10:58:52;99747.06;;;26.98;66.53
24390;BME280;12510;56.468;-3.004;2023-05-09T11:01:33;99738.94;;;25.82;67.01
24390;BME280;12510;56.468;-3.004;2023-05-09T11:04:09;99739.19;;;25.48;68.32
24390;BME280;12510;56.468;-3.004;2023-05-09T11:12:15;99740.97;;;25.64;65.96
24390;BME280;12510;56.468;-3.004;2023-05-09T11:14:46;99774.69;;;24.23;76.69
24390;BME280;12510;56.468;-3.004;2023-05-09T11:17:27;99756.44;;;24.92;72.42
24390;BME280;12510;56.468;-3.004;2023-05-09T11:20:04;99738.81;;;25.06;68.09
24390;BME280;12510;56.468;-3.004;2023-05-09T11:22:42;99753.94;;;24.63;70.29
24390;BME280;12510;56.468;-3.004;2023-05-09T11:25:09;99763.66;;;24.86;74.13
24390;BME280;12510;56.468;-3.004;2023-05-09T11:27:43;99767.31;;;24.58;73.86
24390;BME280;12510;56.468;-3.004;2023-05-09T11:30:12;99752.34;;;24.23;73.06
24390;BME280;12510;56.468;-3.004;2023-05-09T11:32:43;99747.38;;;25.58;70.46
24390;BME280;12510;56.468;-3.004;2023-05-09T11:35:21;99737.41;;;24.76;67.96
24390;BME280;12510;56.468;-3.004;2023-05-09T11:37:57;99750.91;;;25.31;69.72
24390;BME280;12510;56.468;-3.004;2023-05-09T11:40:26;99743.50;;;24.89;69.56
24390;BME280;12510;56.468;-3.004;2023-05-09T11:42:54;99761.88;;;24.31;74.58
24390;BME280;12510;56.468;-3.004;2023-05-09T11:45:22;99762.88;;;24.47;72.84
24390;BME280;12510;56.468;-3.004;2023-05-09T11:47:50;99772.56;;;25.74;77.81
24390;BME280;12510;56.468;-3.004;2023-05-09T11:50:17;99756.34;;;25.09;73.59
24390;BME280;12510;56.468;-3.004;2023-05-09T11:52:45;99765.25;;;26.50;75.43
24390;BME280;12510;56.468;-3.004;2023-05-09T11:55:14;99772.94;;;25.01;75.79
24390;BME280;12510;56.468;-3.004;2023-05-09T11:57:43;99766.97;;;25.81;73.76
24390;BME280;12510;56.468;-3.004;2023-05-09T12:00:11;99759.38;;;25.18;69.15
24390;BME280;12510;56.468;-3.004;2023-05-09T12:02:38;99742.53;;;25.00;65.58
24390;BME280;12510;56.468;-3.004;2023-05-09T12:05:08;99757.69;;;23.84;65.84
24390;BME280;12510;56.468;-3.004;2023-05-09T12:07:36;99773.25;;;23.99;71.26
24390;BME280;12510;56.468;-3.004;2023-05-09T12:10:08;99774.34;;;24.59;72.68
24390;BME280;12510;56.468;-3.004;2023-05-09T12:12:35;99767.78;;;23.93;70.50
24390;BME280;12510;56.468;-3.004;2023-05-09T12:15:07;99763.28;;;24.16;69.21
24390;BME280;12510;56.468;-3.004;2023-05-09T12:17:34;99787.09;;;24.47;79.68
24390;BME280;12510;56.468;-3.004;2023-05-09T12:20:02;99762.75;;;23.97;67.89
24390;BME280;12510;56.468;-3.004;2023-05-09T12:22:32;99756.66;;;24.63;65.57
24390;BME280;12510;56.468;-3.004;2023-05-09T12:25:00;99748.94;;;24.72;65.27
24390;BME280;12510;56.468;-3.004;2023-05-09T12:27:31;99740.00;;;25.16;64.38
24390;BME280;12510;56.468;-3.004;2023-05-09T12:29:59;99722.78;;;24.67;62.24
24390;BME280;12510;56.468;-3.004;2023-05-09T12:32:27;99743.59;;;23.76;65.99
24390;BME280;12510;56.468;-3.004;2023-05-09T12:34:59;99768.44;;;25.06;75.35
24390;BME280;12510;56.468;-3.004;2023-05-09T12:37:25;99727.78;;;24.81;64.11
24390;BME280;12510;56.468;-3.004;2023-05-09T12:42:33;99757.09;;;25.32;79.22
24390;BME280;12510;56.468;-3.004;2023-05-09T12:45:06;99721.31;;;24.82;63.30
24390;BME280;12510;56.468;-3.004;2023-05-09T12:47:32;99707.78;;;24.99;59.70
24390;BME280;12510;56.468;-3.004;2023-05-09T12:50:00;99724.19;;;24.31;64.32
24390;BME280;12510;56.468;-3.004;2023-05-09T12:52:40;99728.13;;;24.62;69.28
24390;BME280;12510;56.468;-3.004;2023-05-09T12:55:11;99734.53;;;24.83;72.62
24390;BME280;12510;56.468;-3.004;2023-05-09T12:57:38;99717.25;;;24.57;69.17
24390;BME280;12510;56.468;-3.004;2023-05-09T13:00:06;99735.78;;;23.92;72.24
24390;BME280;12510;56.468;-3.004;2023-05-09T13:02:35;99724.91;;;24.21;69.38
24390;BME280;12510;56.468;-3.004;2023-05-09T13:05:06;99721.84;;;24.34;69.41
24390;BME280;12510;56.468;-3.004;2023-05-09T13:07:40;99735.03;;;23.63;75.55